»·PEaware :: ASA642 KSFO-KMFR

ASA642 :: KSFO-KMFR

FLIGHT INFORMATION

Flight Status: Arrived
Operator:
Alaska Airlines
More flights by this operator :: More flights under this callsign
Pilot: Anonymous 17611 (17611)
Aircraft: BOEING 737-900
(B739)
More flights by this aircraft type
Origin: KSFO San Francisco Intl
United States
Destination: KMFR Rogue Valley Intl-Medford
United States
More flights between these airports :: More routes between these airports
Route: TRUKN2 GRTFL SAMIE
File this flight plan on PilotEdge
Remarks:
Altitude:
(Current/Filed)
32,000ft
Speed:
(Current/Filed)
460kts
Departed: 07-May-18 03:14 PM
Arrived: 07-May-18 04:04 PM
Distance/Time
Traveled:
287nm/0:50
Distance/Time
To Go:
Arrived

Flight Plot

Page will automatically refresh every two minutes.

Flight plan parsing failed; only flown route is shown


Map Options




Map Legend


Flown Route
Filed Route
Departure Airport
Arrival Airport
Navaid (VOR, NDB)
Fix

Horizontal Profiles

Position Reports

Time Latitude Longitude Heading Altitude Ground
Speed
07-May-18 14:37 37.611680 -122.385974 34 30ft 0kts
07-May-18 14:38 37.611680 -122.385974 34 30ft 0kts
07-May-18 14:39 37.611680 -122.385974 34 30ft 0kts
07-May-18 14:40 37.611680 -122.385974 34 30ft 0kts
07-May-18 14:41 37.611680 -122.385974 34 30ft 0kts
07-May-18 14:42 37.611680 -122.385974 34 30ft 0kts
07-May-18 14:43 37.611680 -122.385974 34 30ft 0kts
07-May-18 14:44 37.611680 -122.385974 34 30ft 0kts
07-May-18 14:45 37.611680 -122.385974 34 30ft 0kts
07-May-18 14:46 37.611680 -122.385974 34 30ft 0kts
07-May-18 14:47 37.611680 -122.385974 34 30ft 0kts
07-May-18 14:48 37.611680 -122.385974 34 30ft 0kts
07-May-18 14:49 37.611680 -122.385974 34 30ft 0kts
07-May-18 14:50 37.611680 -122.385974 34 30ft 0kts
07-May-18 14:51 37.611680 -122.385974 34 30ft 0kts
07-May-18 14:52 37.611680 -122.385974 34 30ft 0kts
07-May-18 14:53 37.611680 -122.385974 34 30ft 0kts
07-May-18 14:54 37.611680 -122.385974 34 30ft 0kts
07-May-18 14:55 37.611680 -122.385974 34 30ft 0kts
07-May-18 14:56 37.611680 -122.385974 34 30ft 0kts
07-May-18 14:57 37.611680 -122.385974 34 30ft 0kts
07-May-18 14:58 37.611680 -122.385974 34 30ft 0kts
07-May-18 14:59 37.611680 -122.385974 34 30ft 0kts
07-May-18 15:00 37.611680 -122.385974 34 30ft 0kts
07-May-18 15:01 37.611680 -122.385974 34 30ft 0kts
07-May-18 15:02 37.611680 -122.385974 34 30ft 0kts
07-May-18 15:03 37.611680 -122.385974 34 30ft 0kts
07-May-18 15:04 37.611680 -122.385974 34 30ft 0kts
07-May-18 15:05 37.611680 -122.385974 34 30ft 0kts
07-May-18 15:06 37.611629 -122.386018 35 30ft 2kts
07-May-18 15:07 37.611477 -122.386682 114 31ft 2kts
07-May-18 15:08 37.611585 -122.386931 116 30ft 0kts
07-May-18 15:09 37.611569 -122.386890 116 30ft 0kts
07-May-18 15:10 37.611208 -122.386074 119 30ft 5kts
07-May-18 15:11 37.608940 -122.383602 126 31ft 0kts
07-May-18 15:12 37.608939 -122.383601 126 31ft 0kts
07-May-18 15:13 37.610320 -122.381355 28 30ft 31kts
07-May-18 15:14 37.644196 -122.357811 31 939ft 200kts
07-May-18 15:15 37.682010 -122.286070 59 3196ft 272kts
07-May-18 15:16 37.729847 -122.216191 14 6297ft 274kts
07-May-18 15:17 37.804681 -122.214693 357 9071ft 284kts
07-May-18 15:18 37.885265 -122.217505 358 11083ft 321kts
07-May-18 15:19 37.970517 -122.220091 357 13844ft 333kts
07-May-18 15:20 38.064007 -122.222776 356 16919ft 346kts
07-May-18 15:21 38.159850 -122.225489 356 19320ft 365kts
07-May-18 15:22 38.260772 -122.228278 355 22130ft 372kts
07-May-18 15:23 38.365884 -122.231586 351 24449ft 385kts
07-May-18 15:24 38.472599 -122.250578 347 26572ft 396kts
07-May-18 15:25 38.583401 -122.270977 347 28488ft 409kts
07-May-18 15:26 38.691929 -122.290825 346 30362ft 413kts
07-May-18 15:27 38.804710 -122.311433 346 32127ft 415kts
07-May-18 15:27 38.903325 -122.329597 346 32145ft 444kts
07-May-18 15:28 39.027081 -122.352152 346 32140ft 455kts
07-May-18 15:29 39.142253 -122.373157 346 32140ft 455kts
07-May-18 15:30 39.263700 -122.395353 346 32136ft 455kts
07-May-18 15:31 39.388670 -122.418213 346 32126ft 455kts
07-May-18 15:32 39.513654 -122.441082 346 32129ft 455kts
07-May-18 15:33 39.638750 -122.463978 346 32127ft 456kts
07-May-18 15:34 39.763929 -122.486891 346 32123ft 456kts
07-May-18 15:36 39.909740 -122.513586 346 32105ft 456kts
07-May-18 15:36 40.014347 -122.532739 346 32105ft 456kts
07-May-18 15:37 40.137812 -122.555347 346 32104ft 456kts
07-May-18 15:38 40.263205 -122.578311 346 32099ft 456kts
07-May-18 15:39 40.388555 -122.601291 346 32094ft 456kts
07-May-18 15:40 40.513822 -122.624224 346 32094ft 456kts
07-May-18 15:41 40.639074 -122.647166 346 32094ft 456kts
07-May-18 15:42 40.765042 -122.670298 346 31152ft 464kts
07-May-18 15:43 40.890166 -122.693200 346 28993ft 459kts
07-May-18 15:44 41.017184 -122.716512 347 27239ft 466kts
07-May-18 15:45 41.142005 -122.739415 347 25727ft 477kts
07-May-18 15:47 41.268133 -122.762429 347 24215ft 451kts
07-May-18 15:48 41.386574 -122.784140 347 24171ft 448kts
07-May-18 15:49 41.508699 -122.806542 348 22773ft 440kts
07-May-18 15:50 41.628319 -122.828484 348 21381ft 432kts
07-May-18 15:51 41.746293 -122.850132 348 19985ft 424kts
07-May-18 15:52 41.861573 -122.871283 349 18023ft 413kts
07-May-18 15:53 41.972800 -122.891681 350 16001ft 383kts
07-May-18 15:54 42.070417 -122.909553 350 13500ft 339kts
07-May-18 15:55 42.150681 -122.889160 51 10850ft 307kts
07-May-18 15:56 42.199996 -122.799087 40 8046ft 293kts
07-May-18 15:57 42.268254 -122.812515 324 5185ft 255kts
07-May-18 15:58 42.330268 -122.848596 331 2236ft 238kts
07-May-18 15:59 42.383977 -122.878071 338 2183ft 190kts
07-May-18 16:00 42.414661 -122.862709 123 2313ft 197kts
07-May-18 16:01 42.365465 -122.841921 167 2647ft 177kts
07-May-18 16:02 42.326501 -122.844252 291 2135ft 156kts
07-May-18 16:03 42.365779 -122.868486 337 1353ft 155kts
07-May-18 16:04 42.385380 -122.878774 336 1303ft 18kts

Navigation Log

Ident Type
Flight plan parsing failed, navigation log unavailable